Time;durP1;ratioP1;P1;durP2;ratioP2;P2;SDS_P1;SDS_P2;PMS_P1;PMS_P2;Temp;Humidity;BMP_temperature;BMP_pressure;BME280_temperature;BME280_humidity;BME280_pressure;Samples;Min_cycle;Max_cycle;Signal;HPM_P1;HPM_P2
2023/11/27 00:01:12;;;;;;;22.38;12.18;;;52.10;2227.20;;;;;;5059252;28;20483;-60
2023/11/27 00:03:39;;;;;;;31.35;16.95;;;52.10;2227.20;;;;;;5058386;28;20031;-60
2023/11/27 00:06:06;;;;;;;19.48;12.15;;;52.10;2227.20;;;;;;5060073;28;20028;-62
2023/11/27 00:08:32;;;;;;;9.55;6.03;;;52.10;2227.20;;;;;;5059087;28;20021;-59
2023/11/27 00:10:58;;;;;;;29.70;18.58;;;52.10;2227.20;;;;;;5058435;28;20112;-58
2023/11/27 00:13:24;;;;;;;12.23;8.02;;;52.00;2227.20;;;;;;5060184;28;20382;-58
2023/11/27 00:15:50;;;;;;;12.30;7.18;;;52.00;2227.20;;;;;;5059374;28;20029;-61
2023/11/27 00:18:16;;;;;;;8.45;4.97;;;52.00;2227.20;;;;;;5058584;28;20542;-63
2023/11/27 00:20:42;;;;;;;10.43;5.88;;;51.90;2227.20;;;;;;5060132;28;20071;-60
2023/11/27 00:23:09;;;;;;;8.05;4.60;;;51.90;2227.20;;;;;;5060466;28;20115;-61
2023/11/27 00:25:35;;;;;;;14.10;9.50;;;51.90;2227.20;;;;;;5059229;28;20024;-59
2023/11/27 00:28:01;;;;;;;11.27;6.20;;;51.80;2227.20;;;;;;5058004;28;20394;-60
2023/11/27 00:30:28;;;;;;;44.58;28.40;;;51.80;2227.20;;;;;;5059689;28;20021;-58
2023/11/27 00:32:54;;;;;;;11.10;6.50;;;51.80;2227.20;;;;;;5059009;28;20075;-61
2023/11/27 00:35:20;;;;;;;16.08;9.20;;;51.60;2227.20;;;;;;5058187;28;20036;-58
2023/11/27 00:37:46;;;;;;;29.38;18.40;;;51.60;2227.20;;;;;;5059696;28;20028;-58
2023/11/27 00:40:11;;;;;;;20.90;10.68;;;51.60;2227.20;;;;;;5058582;28;20033;-60
2023/11/27 00:42:37;;;;;;;16.55;8.65;;;51.80;2227.20;;;;;;5059054;28;20021;-59
2023/11/27 00:45:05;;;;;;;22.08;11.50;;;51.80;2227.20;;;;;;5059885;28;20031;-60
2023/11/27 00:47:33;;;;;;;18.35;8.80;;;51.70;2227.20;;;;;;5058695;28;20029;-58
2023/11/27 00:49:58;;;;;;;41.13;25.73;;;51.70;2227.20;;;;;;5058232;28;20055;-59
2023/11/27 00:52:24;;;;;;;38.78;23.52;;;51.60;2227.20;;;;;;5059838;28;20471;-61
2023/11/27 00:54:50;;;;;;;40.72;25.77;;;51.60;2227.20;;;;;;5061721;28;20104;-59
2023/11/27 00:57:16;;;;;;;186.30;104.88;;;51.50;2227.20;;;;;;5062206;28;20047;-60
2023/11/27 00:59:42;;;;;;;39.38;22.65;;;51.60;2227.20;;;;;;5063074;28;20116;-61
2023/11/27 01:02:09;;;;;;;25.88;15.52;;;51.50;2227.20;;;;;;5061949;28;20661;-61
2023/11/27 01:04:38;;;;;;;10.27;4.43;;;51.60;2227.20;;;;;;5062163;28;20025;-61
2023/11/27 01:07:04;;;;;;;52.75;26.60;;;51.50;2227.20;;;;;;5063401;28;20493;-59
2023/11/27 01:09:31;;;;;;;17.35;8.95;;;51.40;2227.20;;;;;;5062130;28;20025;-59
2023/11/27 01:11:57;;;;;;;90.07;52.45;;;51.40;2227.20;;;;;;5061633;28;20487;-60
2023/11/27 01:14:23;;;;;;;27.25;17.88;;;51.50;2227.20;;;;;;5063477;28;20108;-59
2023/11/27 01:16:49;;;;;;;36.33;26.30;;;51.40;2227.20;;;;;;5061828;28;20040;-60
2023/11/27 01:19:15;;;;;;;17.13;9.50;;;51.50;2227.20;;;;;;5062038;28;20105;-60
2023/11/27 01:21:40;;;;;;;10.18;5.95;;;51.50;2227.20;;;;;;5063424;28;20025;-60
2023/11/27 01:24:06;;;;;;;12.77;8.55;;;51.40;2227.20;;;;;;5063106;28;20033;-60
2023/11/27 01:26:33;;;;;;;7.88;4.35;;;51.50;2227.20;;;;;;5062297;28;20073;-57
2023/11/27 01:28:58;;;;;;;11.98;5.65;;;51.40;2227.20;;;;;;5061489;28;20107;-59
2023/11/27 01:31:24;;;;;;;6.88;4.60;;;51.40;2227.20;;;;;;5063206;28;20032;-60
2023/11/27 01:33:51;;;;;;;12.63;7.55;;;51.40;2227.20;;;;;;5061623;28;20029;-59
2023/11/27 01:36:17;;;;;;;9.00;5.72;;;51.40;2227.20;;;;;;5061505;28;20032;-59
2023/11/27 01:38:43;;;;;;;10.57;7.07;;;51.50;2227.20;;;;;;5062872;28;20510;-60
2023/11/27 01:41:09;;;;;;;8.95;4.85;;;51.50;2227.20;;;;;;5061365;28;20112;-60
2023/11/27 01:43:35;;;;;;;12.15;7.32;;;51.50;2227.20;;;;;;5061654;28;20056;-61
2023/11/27 01:46:16;;;;;;;13.10;6.68;;;51.40;2227.20;;;;;;5063056;28;20036;-60
2023/11/27 01:48:41;;;;;;;6.90;5.07;;;51.40;2227.20;;;;;;5062977;28;20036;-60
2023/11/27 01:51:08;;;;;;;12.07;6.93;;;51.30;2227.20;;;;;;5062566;28;20425;-59
2023/11/27 01:53:34;;;;;;;9.38;4.50;;;51.50;2227.20;;;;;;5061518;28;20025;-59
2023/11/27 01:56:00;;;;;;;10.50;5.47;;;51.50;2227.20;;;;;;5060928;28;20082;-59
2023/11/27 01:58:26;;;;;;;10.68;6.50;;;51.40;2227.20;;;;;;5062382;28;20091;-60
2023/11/27 02:00:52;;;;;;;32.30;19.08;;;51.40;2227.20;;;;;;5061511;28;20056;-60
2023/11/27 02:03:18;;;;;;;19.30;12.38;;;51.30;2227.20;;;;;;5061005;28;20055;-60
2023/11/27 02:05:44;;;;;;;14.43;9.32;;;51.30;2227.20;;;;;;5061915;28;20534;-60
2023/11/27 02:08:09;;;;;;;10.27;4.70;;;51.30;2227.20;;;;;;5061314;28;20033;-59
2023/11/27 02:10:35;;;;;;;28.30;19.95;;;51.30;2227.20;;;;;;5060758;28;20036;-59
2023/11/27 02:13:01;;;;;;;8.82;6.35;;;51.40;2227.20;;;;;;5062418;28;20021;-59
2023/11/27 02:15:27;;;;;;;22.00;13.48;;;51.40;2227.20;;;;;;5062183;28;20040;-60
2023/11/27 02:17:53;;;;;;;12.85;7.40;;;51.30;2227.20;;;;;;5061273;28;20479;-59
2023/11/27 02:20:19;;;;;;;22.60;12.88;;;51.40;2227.20;;;;;;5060874;28;20032;-59
2023/11/27 02:22:45;;;;;;;13.48;9.20;;;51.30;2227.20;;;;;;5044282;28;20040;-60
2023/11/27 02:25:11;;;;;;;6.30;3.28;;;51.30;2227.20;;;;;;5061694;28;20407;-60
2023/11/27 02:27:38;;;;;;;9.70;6.85;;;51.30;2227.20;;;;;;5061598;28;20029;-59
2023/11/27 02:30:05;;;;;;;7.68;4.90;;;51.30;2227.20;;;;;;5059982;28;20020;-60
2023/11/27 02:32:31;;;;;;;7.75;5.63;;;51.30;2227.20;;;;;;5061557;28;20027;-60
2023/11/27 02:34:57;;;;;;;5.45;2.60;;;51.40;2227.20;;;;;;5043104;28;20013;-60
2023/11/27 02:37:23;;;;;;;8.35;3.90;;;51.40;2227.20;;;;;;5059749;28;20056;-60
2023/11/27 02:39:49;;;;;;;5.03;3.00;;;51.40;2227.20;;;;;;5061452;28;20035;-59
2023/11/27 02:42:15;;;;;;;5.75;3.72;;;51.40;2227.20;;;;;;5060813;28;20037;-60
2023/11/27 02:44:40;;;;;;;4.93;3.47;;;51.30;2227.20;;;;;;5059967;28;20016;-59
2023/11/27 02:47:06;;;;;;;5.20;3.15;;;51.30;2227.20;;;;;;5061666;28;20048;-62
2023/11/27 02:49:32;;;;;;;5.32;3.22;;;51.30;2227.20;;;;;;5060487;28;20151;-59
2023/11/27 02:51:58;;;;;;;4.82;2.65;;;51.20;2227.20;;;;;;5060022;28;20441;-59
2023/11/27 02:54:24;;;;;;;3.90;2.33;;;51.30;2227.20;;;;;;5059142;28;20035;-60
2023/11/27 02:56:50;;;;;;;5.07;2.13;;;51.40;2227.20;;;;;;5061308;28;20058;-61
2023/11/27 02:59:16;;;;;;;6.22;2.60;;;51.40;2227.20;;;;;;5060791;28;20351;-59
2023/11/27 03:01:42;;;;;;;4.70;2.65;;;51.50;2227.20;;;;;;5059538;28;20037;-60
2023/11/27 03:04:08;;;;;;;6.75;3.05;;;51.50;2227.20;;;;;;5061473;28;20446;-60
2023/11/27 03:06:34;;;;;;;7.25;2.55;;;51.50;2227.20;;;;;;5060257;28;20021;-60
2023/11/27 03:09:00;;;;;;;4.38;2.35;;;51.50;2227.20;;;;;;5059401;28;20027;-59
2023/11/27 03:11:25;;;;;;;4.50;2.08;;;51.50;2227.20;;;;;;5060848;28;20109;-60
2023/11/27 03:13:51;;;;;;;3.88;2.38;;;51.50;2227.20;;;;;;5059789;28;20059;-60
2023/11/27 03:16:17;;;;;;;4.95;2.45;;;51.50;2227.20;;;;;;5059084;28;20044;-60
2023/11/27 03:18:42;;;;;;;5.22;2.65;;;51.60;2227.20;;;;;;5069998;28;20024;-61
2023/11/27 03:21:19;;;;;;;3.47;1.73;;;51.60;2227.20;;;;;;5070831;28;20036;-60
2023/11/27 03:23:46;;;;;;;3.30;1.73;;;51.60;2227.20;;;;;;5070268;28;20140;-60
2023/11/27 03:26:11;;;;;;;3.17;1.90;;;51.60;2227.20;;;;;;5070611;28;20082;-60
2023/11/27 03:28:38;;;;;;;4.75;2.45;;;51.60;2227.20;;;;;;5070637;28;20037;-62
2023/11/27 03:31:04;;;;;;;3.10;1.58;;;51.60;2227.20;;;;;;5070501;28;20034;-60
2023/11/27 03:33:30;;;;;;;6.07;1.80;;;51.70;2227.20;;;;;;5070434;28;20032;-62
2023/11/27 03:35:55;;;;;;;6.72;3.05;;;51.70;2227.20;;;;;;5070213;28;20028;-61
2023/11/27 03:38:21;;;;;;;5.57;2.72;;;51.70;2227.20;;;;;;5070430;28;20024;-61
2023/11/27 03:40:47;;;;;;;3.80;2.17;;;51.80;2227.20;;;;;;5070028;28;20024;-60
2023/11/27 03:43:13;;;;;;;4.20;1.95;;;51.80;2227.20;;;;;;5070104;28;20048;-60
2023/11/27 03:45:39;;;;;;;3.58;2.20;;;51.80;2227.20;;;;;;5070191;28;20028;-60
2023/11/27 03:48:06;;;;;;;4.65;2.88;;;51.80;2227.20;;;;;;5070048;28;20027;-60
2023/11/27 03:50:33;;;;;;;6.43;2.45;;;51.90;2227.20;;;;;;5070253;28;20021;-60
2023/11/27 03:52:59;;;;;;;7.03;3.25;;;51.80;2227.20;;;;;;5069999;28;20386;-63
2023/11/27 03:55:25;;;;;;;3.15;1.75;;;51.80;2227.20;;;;;;5069973;28;20064;-60
2023/11/27 03:57:51;;;;;;;7.03;2.47;;;51.90;2227.20;;;;;;5070089;28;20048;-60
2023/11/27 04:00:18;;;;;;;5.65;1.98;;;51.90;2227.20;;;;;;5069737;28;20028;-61
2023/11/27 04:02:46;;;;;;;3.53;1.85;;;51.80;2227.20;;;;;;5069835;28;20407;-60
2023/11/27 04:05:12;;;;;;;6.10;2.92;;;51.60;2227.20;;;;;;5069912;28;20025;-60
2023/11/27 04:07:38;;;;;;;4.82;2.90;;;51.60;2227.20;;;;;;5069700;28;20517;-63
2023/11/27 04:10:04;;;;;;;4.75;2.28;;;51.60;2227.20;;;;;;5069401;28;20029;-60
2023/11/27 04:12:32;;;;;;;4.70;1.98;;;51.70;2227.20;;;;;;5070058;28;20440;-61
2023/11/27 04:14:59;;;;;;;2.17;1.23;;;51.80;2227.20;;;;;;5069856;28;20048;-60
2023/11/27 04:17:25;;;;;;;2.50;1.55;;;51.80;2227.20;;;;;;5069613;28;20073;-60
2023/11/27 04:19:53;;;;;;;4.28;1.60;;;51.80;2227.20;;;;;;5069472;28;20131;-60
2023/11/27 04:22:19;;;;;;;4.72;2.00;;;51.80;2227.20;;;;;;5069702;28;20047;-60
2023/11/27 04:24:45;;;;;;;4.20;2.08;;;51.80;2227.20;;;;;;5069320;28;20032;-61
2023/11/27 04:27:11;;;;;;;2.28;1.23;;;51.80;2227.20;;;;;;5069446;28;20084;-60
2023/11/27 04:29:37;;;;;;;2.80;1.30;;;51.80;2227.20;;;;;;5069469;28;20060;-60
2023/11/27 04:32:03;;;;;;;2.38;1.33;;;51.80;2227.20;;;;;;5069804;28;20036;-60
2023/11/27 04:34:28;;;;;;;7.13;3.65;;;51.90;2227.20;;;;;;5069543;28;20032;-60
2023/11/27 04:36:54;;;;;;;5.28;2.85;;;51.90;2227.20;;;;;;5069366;28;20037;-62
2023/11/27 04:39:22;;;;;;;26.10;11.43;;;51.90;2227.20;;;;;;5069529;28;20028;-60
2023/11/27 04:41:48;;;;;;;40.28;15.80;;;51.90;2227.20;;;;;;5069915;28;20374;-60
2023/11/27 04:44:15;;;;;;;45.05;20.63;;;51.80;2227.20;;;;;;5069508;28;20036;-60
2023/11/27 04:46:41;;;;;;;44.40;19.58;;;51.70;2227.20;;;;;;5069519;28;20074;-59
2023/11/27 04:49:09;;;;;;;42.05;19.95;;;51.60;2227.20;;;;;;5069149;28;20024;-60
2023/11/27 04:51:35;;;;;;;54.90;24.40;;;51.60;2227.20;;;;;;5069476;28;20482;-60
2023/11/27 04:54:02;;;;;;;52.28;24.20;;;51.40;2227.20;;;;;;5069708;28;20044;-60
2023/11/27 04:56:28;;;;;;;15.98;9.05;;;51.40;2227.20;;;;;;5069300;28;20036;-60
2023/11/27 04:58:54;;;;;;;9.60;4.13;;;51.30;2227.20;;;;;;5069230;28;20032;-62
2023/11/27 05:01:20;;;;;;;7.93;4.25;;;51.30;2227.20;;;;;;5069517;28;20039;-60
2023/11/27 05:03:46;;;;;;;7.20;3.50;;;51.20;2227.20;;;;;;5069008;28;20025;-60
2023/11/27 05:06:15;;;;;;;5.82;3.13;;;51.20;2227.20;;;;;;5069348;28;20493;-60
2023/11/27 05:08:42;;;;;;;3.60;2.42;;;51.20;2227.20;;;;;;5069121;28;20082;-60
2023/11/27 05:11:08;;;;;;;3.42;1.98;;;51.30;2227.20;;;;;;5068888;28;20449;-63
2023/11/27 05:13:34;;;;;;;6.28;2.67;;;51.30;2227.20;;;;;;5068927;28;20045;-60
2023/11/27 05:16:00;;;;;;;2.40;1.30;;;51.20;2227.20;;;;;;5069116;28;20032;-62
2023/11/27 05:18:26;;;;;;;4.88;1.70;;;51.20;2227.20;;;;;;5068915;28;20382;-62
2023/11/27 05:20:51;;;;;;;2.70;1.40;;;26.50;2201.60;;;;;;5069332;28;20017;-60
2023/11/27 05:23:17;;;;;;;4.65;1.33;;;26.40;2201.60;;;;;;5068836;28;20108;-60
2023/11/27 05:25:43;;;;;;;2.58;1.40;;;26.30;2201.60;;;;;;5068826;28;20470;-60
2023/11/27 05:28:09;;;;;;;3.35;1.27;;;26.40;2201.60;;;;;;5069240;28;20062;-59
2023/11/27 05:30:34;;;;;;;3.58;2.08;;;26.50;2201.60;;;;;;5069044;28;20051;-63
2023/11/27 05:33:00;;;;;;;7.78;3.20;;;26.40;2201.60;;;;;;5068996;28;20025;-61
2023/11/27 05:35:26;;;;;;;9.02;3.47;;;26.50;2201.60;;;;;;5068613;28;20032;-60
2023/11/27 05:37:53;;;;;;;8.07;5.07;;;51.20;2227.20;;;;;;5068964;28;20020;-59
2023/11/27 05:40:20;;;;;;;18.67;11.05;;;51.20;2227.20;;;;;;5070936;28;20422;-60
2023/11/27 05:42:46;;;;;;;25.15;12.88;;;51.20;2227.20;;;;;;5072606;28;20090;-60
2023/11/27 05:45:12;;;;;;;27.85;13.68;;;26.40;2201.60;;;;;;5072365;28;20487;-60
2023/11/27 05:47:39;;;;;;;21.10;10.38;;;26.30;2201.60;;;;;;5072546;28;20012;-63
2023/11/27 05:50:06;;;;;;;18.35;9.95;;;26.40;2201.60;;;;;;5072267;28;20483;-60
2023/11/27 05:52:32;;;;;;;18.33;11.02;;;26.40;2201.60;;;;;;5072383;28;20025;-59
2023/11/27 05:54:58;;;;;;;8.18;4.20;;;26.40;2201.60;;;;;;5072080;28;20459;-60
2023/11/27 05:57:23;;;;;;;8.20;4.40;;;26.50;2201.60;;;;;;5072488;28;20166;-60
2023/11/27 05:59:49;;;;;;;7.57;4.28;;;26.50;2201.60;;;;;;5072336;28;20469;-60
2023/11/27 06:02:15;;;;;;;5.00;3.20;;;26.50;2201.60;;;;;;5071918;28;20036;-62
2023/11/27 06:04:43;;;;;;;6.65;3.67;;;51.20;2227.20;;;;;;5072158;28;20021;-60
2023/11/27 06:07:09;;;;;;;10.02;5.15;;;51.30;2227.20;;;;;;5072181;28;20024;-60
2023/11/27 06:09:34;;;;;;;8.75;5.63;;;51.30;2227.20;;;;;;5071713;28;20640;-62
2023/11/27 06:12:00;;;;;;;13.15;6.63;;;51.40;2227.20;;;;;;5071955;28;20049;-60
2023/11/27 06:14:26;;;;;;;11.05;5.00;;;51.40;2227.20;;;;;;5071767;28;20102;-62
2023/11/27 06:16:52;;;;;;;7.30;4.85;;;51.50;2227.20;;;;;;5072058;28;20163;-61
2023/11/27 06:19:18;;;;;;;19.90;10.90;;;51.50;2227.20;;;;;;5071944;28;20032;-60
2023/11/27 06:21:44;;;;;;;160.52;93.10;;;51.50;2227.20;;;;;;5071691;28;20037;-60
2023/11/27 06:24:10;;;;;;;110.05;60.33;;;51.40;2227.20;;;;;;5071696;28;20024;-60
2023/11/27 06:26:36;;;;;;;133.07;71.82;;;26.50;2201.60;;;;;;5071548;28;20078;-60
2023/11/27 06:29:02;;;;;;;87.20;49.00;;;26.30;2201.60;;;;;;5071741;28;20024;-60
2023/11/27 06:31:28;;;;;;;92.38;54.00;;;26.30;2201.60;;;;;;5071733;28;20028;-62
2023/11/27 06:33:54;;;;;;;110.18;70.57;;;26.50;2201.60;;;;;;5071556;28;20078;-60
2023/11/27 06:36:19;;;;;;;107.00;67.28;;;26.50;2201.60;;;;;;5071471;28;20044;-60
2023/11/27 06:38:45;;;;;;;75.80;45.40;;;26.50;2201.60;;;;;;5071261;28;20119;-60
2023/11/27 06:41:11;;;;;;;71.28;41.65;;;26.50;2201.60;;;;;;5071425;28;20056;-60
2023/11/27 06:43:37;;;;;;;66.38;40.15;;;51.30;2227.20;;;;;;5071474;28;20057;-60
2023/11/27 06:46:03;;;;;;;95.97;55.83;;;51.30;2227.20;;;;;;5071168;28;20029;-60
2023/11/27 06:48:29;;;;;;;54.83;33.78;;;51.30;2227.20;;;;;;5071488;28;20043;-61
2023/11/27 06:50:55;;;;;;;154.30;97.13;;;51.40;2227.20;;;;;;5069751;28;20029;-60
2023/11/27 06:53:24;;;;;;;129.80;76.40;;;26.40;2201.60;;;;;;5071256;28;20032;-61
2023/11/27 06:55:50;;;;;;;146.20;82.53;;;26.30;2201.60;;;;;;5071062;28;20040;-61
2023/11/27 06:58:15;;;;;;;121.97;71.90;;;26.10;2201.60;;;;;;5071169;28;20036;-60
2023/11/27 07:00:41;;;;;;;64.13;42.20;;;26.20;2201.60;;;;;;5071609;28;20344;-59
2023/11/27 07:03:07;;;;;;;73.05;45.13;;;26.20;2201.60;;;;;;5070926;28;20032;-60
2023/11/27 07:05:33;;;;;;;66.35;40.38;;;26.30;2201.60;;;;;;5070354;28;20031;-61
2023/11/27 07:07:59;;;;;;;61.67;34.22;;;51.20;2227.20;;;;;;5070832;28;20036;-61
2023/11/27 07:10:25;;;;;;;96.35;55.65;;;51.30;2227.20;;;;;;5069688;28;20048;-59
2023/11/27 07:12:51;;;;;;;87.05;51.60;;;51.30;2227.20;;;;;;5070457;28;20119;-61
2023/11/27 07:15:17;;;;;;;134.27;84.20;;;51.20;2227.20;;;;;;5070184;28;20489;-61
2023/11/27 07:17:44;;;;;;;122.28;69.50;;;51.20;2227.20;;;;;;5070106;28;20131;-60
2023/11/27 07:20:17;;;;;;;101.80;57.42;;;51.20;2227.20;;;;;;5070087;28;20040;-58
2023/11/27 07:22:47;;;;;;;87.47;51.28;;;51.30;2227.20;;;;;;5069822;28;20055;-59
2023/11/27 07:25:16;;;;;;;85.55;49.75;;;51.30;2227.20;;;;;;5070009;28;20033;-59
2023/11/27 07:27:49;;;;;;;72.57;41.00;;;51.30;2227.20;;;;;;5068182;28;20364;-59
2023/11/27 07:30:15;;;;;;;43.83;24.20;;;51.40;2227.20;;;;;;5070104;28;20598;-59
2023/11/27 07:32:45;;;;;;;49.33;27.73;;;51.40;2227.20;;;;;;5070035;28;20033;-57
2023/11/27 07:35:11;;;;;;;65.93;37.22;;;51.40;2227.20;;;;;;5069546;28;20036;-59
2023/11/27 07:37:37;;;;;;;82.70;47.80;;;51.40;2227.20;;;;;;5069658;28;20021;-58
2023/11/27 07:40:09;;;;;;;75.93;44.03;;;51.50;2227.20;;;;;;5069737;28;20111;-61
2023/11/27 07:42:35;;;;;;;79.88;49.03;;;51.70;2227.20;;;;;;5069525;28;20024;-59
2023/11/27 07:45:01;;;;;;;79.00;50.63;;;51.80;2227.20;;;;;;5069849;28;20048;-58
2023/11/27 07:47:27;;;;;;;75.68;43.15;;;51.90;2227.20;;;;;;5069258;28;20052;-59
2023/11/27 07:49:53;;;;;;;72.90;42.88;;;52.10;2227.20;;;;;;5069786;28;20085;-58
2023/11/27 07:52:18;;;;;;;62.03;41.13;;;77.10;2227.20;;;;;;5069679;28;20065;-58
2023/11/27 07:54:46;;;;;;;73.60;43.05;;;77.30;2227.20;;;;;;5069618;28;20017;-60
2023/11/27 07:57:11;;;;;;;84.20;49.35;;;102.70;2227.20;;;;;;5069758;28;20040;-60
2023/11/27 07:59:37;;;;;;;105.85;60.13;;;128.50;2252.80;;;;;;5068999;28;20371;-60
2023/11/27 08:02:03;;;;;;;116.07;72.90;;;154.50;2252.80;;;;;;5069123;28;20020;-60
2023/11/27 08:04:32;;;;;;;127.15;87.18;;;204.80;2176.00;;;;;;5069174;28;20493;-60
2023/11/27 08:06:58;;;;;;;121.65;90.13;;;230.60;2048.00;;;;;;5069184;28;20017;-60
2023/11/27 08:09:23;;;;;;;125.70;93.43;;;256.50;1945.60;;;;;;5069423;28;20093;-60
2023/11/27 08:11:50;;;;;;;147.05;100.65;;;307.30;1868.80;;;;;;5068865;28;20055;-58
2023/11/27 08:14:17;;;;;;;159.98;109.00;;;332.80;1817.60;;;;;;5068665;28;20046;-57
2023/11/27 08:16:44;;;;;;;139.52;101.22;;;333.50;1715.20;;;;;;5069279;28;20052;-57
2023/11/27 08:19:13;;;;;;;128.10;102.20;;;333.70;1689.60;;;;;;5068663;28;20039;-59
2023/11/27 08:21:39;;;;;;;145.27;110.07;;;358.70;1664.00;;;;;;5068891;28;20032;-58
2023/11/27 08:24:06;;;;;;;150.57;126.43;;;332.90;1689.60;;;;;;5068950;28;20024;-58
2023/11/27 08:26:39;;;;;;;136.93;106.30;;;282.40;1740.80;;;;;;5069148;28;20021;-58
2023/11/27 08:29:08;;;;;;;158.18;123.70;;;256.40;1817.60;;;;;;5069144;28;20040;-58
2023/11/27 08:31:35;;;;;;;79.03;60.42;;;231.00;1920.00;;;;;;5068767;28;20066;-59
2023/11/27 08:34:03;;;;;;;27.52;22.23;;;256.20;1843.20;;;;;;5069152;28;20059;-58
2023/11/27 08:36:31;;;;;;;57.78;45.05;;;282.20;1766.40;;;;;;5068847;28;20040;-58
2023/11/27 08:38:57;;;;;;;200.23;151.98;;;307.60;1715.20;;;;;;5068556;28;20081;-59
2023/11/27 08:41:24;;;;;;;323.38;258.92;;;307.80;1740.80;;;;;;5068718;28;20029;-59
2023/11/27 08:43:49;;;;;;;286.63;240.48;;;307.80;1843.20;;;;;;5068454;28;20052;-59
2023/11/27 08:46:16;;;;;;;263.08;232.48;;;333.50;1792.00;;;;;;5068376;28;20487;-60
2023/11/27 08:48:41;;;;;;;228.82;202.55;;;333.60;1766.40;;;;;;5068804;28;20032;-59
2023/11/27 08:51:08;;;;;;;218.65;188.02;;;333.60;1766.40;;;;;;5068727;28;20025;-59
2023/11/27 08:53:34;;;;;;;191.63;169.25;;;358.50;1740.80;;;;;;5068803;28;20070;-60
2023/11/27 08:56:00;;;;;;;239.40;213.48;;;358.50;1740.80;;;;;;5068467;28;20037;-60
2023/11/27 08:58:26;;;;;;;224.23;200.20;;;358.90;1715.20;;;;;;5068338;28;20028;-60
2023/11/27 09:00:52;;;;;;;201.40;177.35;;;384.00;1664.00;;;;;;5068824;28;20036;-59
2023/11/27 09:03:18;;;;;;;182.55;158.10;;;384.40;1664.00;;;;;;5068480;28;20021;-57
2023/11/27 09:05:48;;;;;;;248.30;222.07;;;384.00;1638.40;;;;;;5068262;28;20039;-59
2023/11/27 09:08:14;;;;;;;185.90;166.02;;;358.90;1689.60;;;;;;5068522;28;20052;-59
2023/11/27 09:10:40;;;;;;;180.75;160.82;;;358.60;1689.60;;;;;;5068437;28;20131;-59
2023/11/27 09:13:07;;;;;;;168.15;146.90;;;358.70;1689.60;;;;;;5068244;28;20047;-58
2023/11/27 09:15:36;;;;;;;140.93;125.13;;;358.80;1689.60;;;;;;5071264;28;20033;-59
2023/11/27 09:18:01;;;;;;;120.15;107.07;;;358.90;1664.00;;;;;;5072270;28;20056;-59
2023/11/27 09:20:27;;;;;;;128.38;113.85;;;359.00;1638.40;;;;;;5071914;28;20056;-60
2023/11/27 09:22:53;;;;;;;100.32;88.82;;;359.10;1638.40;;;;;;5072279;28;20033;-59
2023/11/27 09:25:19;;;;;;;98.03;86.40;;;358.50;1664.00;;;;;;5072300;28;20032;-60
2023/11/27 09:27:48;;;;;;;107.28;95.03;;;358.50;1689.60;;;;;;5072117;28;20036;-61
2023/11/27 09:30:14;;;;;;;132.38;117.70;;;333.70;1689.60;;;;;;5071708;28;20142;-59
2023/11/27 09:32:40;;;;;;;114.15;97.22;;;358.50;1715.20;;;;;;5072299;28;20074;-59
2023/11/27 09:35:15;;;;;;;130.02;110.80;;;333.70;1715.20;;;;;;5071994;28;20028;-58
2023/11/27 09:37:41;;;;;;;126.97;106.00;;;333.00;1792.00;;;;;;5072114;28;20028;-61
2023/11/27 09:40:11;;;;;;;100.53;82.40;;;307.60;1843.20;;;;;;5071540;28;20086;-61
2023/11/27 09:42:37;;;;;;;133.93;88.28;;;307.60;1843.20;;;;;;5071651;28;20119;-61
2023/11/27 09:45:04;;;;;;;195.30;120.10;;;307.40;1817.60;;;;;;5066165;28;20103;-59
2023/11/27 09:47:33;;;;;;;121.03;83.07;;;281.90;1868.80;;;;;;5069396;28;20040;-59
2023/11/27 09:50:00;;;;;;;182.93;117.22;;;256.80;1894.40;;;;;;5063322;28;20023;-58
2023/11/27 09:52:47;;;;;;;258.35;157.20;;;256.50;1945.60;;;;;;5061934;28;20082;-60
2023/11/27 09:55:15;;;;;;;185.27;113.05;;;256.00;1945.60;;;;;;5063186;28;20021;-58
2023/11/27 09:57:44;;;;;;;122.03;83.25;;;231.30;1945.60;;;;;;5061300;28;20035;-58
2023/11/27 10:00:13;;;;;;;118.63;76.90;;;231.20;1971.20;;;;;;5062618;28;20023;-59
2023/11/27 10:02:39;;;;;;;219.93;125.72;;;256.00;1971.20;;;;;;5062323;28;20029;-58
2023/11/27 10:05:05;;;;;;;103.80;65.32;;;231.20;1945.60;;;;;;5059538;28;20099;-60
2023/11/27 10:07:34;;;;;;;75.78;54.70;;;231.20;1945.60;;;;;;5063173;28;20028;-58
2023/11/27 10:10:04;;;;;;;92.00;63.58;;;231.30;1920.00;;;;;;5060569;28;20024;-59
2023/11/27 10:12:30;;;;;;;104.18;70.80;;;256.00;1920.00;;;;;;5062002;28;20067;-58
2023/11/27 10:14:57;;;;;;;104.68;67.72;;;256.00;1945.60;;;;;;5060678;28;20096;-58
2023/11/27 10:17:24;;;;;;;87.10;57.53;;;256.00;1920.00;;;;;;5060057;28;20452;-60
2023/11/27 10:19:53;;;;;;;99.03;72.97;;;231.30;1920.00;;;;;;5062032;28;20045;-58
2023/11/27 10:22:19;;;;;;;25.02;15.52;;;256.20;1868.80;;;;;;5060945;28;20115;-59
2023/11/27 10:24:45;;;;;;;485.30;275.50;;;256.00;1868.80;;;;;;5059811;28;20269;-60
2023/11/27 10:27:11;;;;;;;40.55;22.17;;;256.10;1868.80;;;;;;5062738;28;20017;-59
2023/11/27 10:29:37;;;;;;;124.43;79.10;;;256.20;1894.40;;;;;;5065405;28;20028;-59
2023/11/27 10:32:03;;;;;;;140.95;97.45;;;256.20;1894.40;;;;;;5062359;28;20017;-58
2023/11/27 10:34:33;;;;;;;13.30;6.38;;;256.20;1868.80;;;;;;5060335;28;20104;-59
2023/11/27 10:37:02;;;;;;;61.47;39.20;;;256.10;1894.40;;;;;;5061410;28;20056;-59
2023/11/27 10:39:35;;;;;;;185.38;114.75;;;256.20;1894.40;;;;;;5060938;28;20372;-59
2023/11/27 10:42:07;;;;;;;;;;;256.30;1868.80;;;;;;5063245;28;20042;-60
2023/11/27 10:44:36;;;;;;;285.33;185.43;;;256.30;1894.40;;;;;;5059536;28;21367;-60
2023/11/27 10:47:08;;;;;;;136.65;90.20;;;256.40;1868.80;;;;;;5060407;28;20021;-59
2023/11/27 10:49:39;;;;;;;64.65;34.85;;;256.30;1894.40;;;;;;5060224;28;20067;-59
2023/11/27 10:52:08;;;;;;;20.40;11.82;;;256.40;1894.40;;;;;;5061537;28;20027;-59
2023/11/27 10:54:38;;;;;;;46.65;23.85;;;256.40;1868.80;;;;;;5060394;28;20053;-60
2023/11/27 10:57:07;;;;;;;16.73;9.70;;;256.50;1868.80;;;;;;5059275;28;20110;-59
2023/11/27 10:59:33;;;;;;;28.42;15.77;;;256.60;1894.40;;;;;;5062290;28;20135;-61
2023/11/27 11:02:04;;;;;;;9.32;5.75;;;256.60;1868.80;;;;;;5070914;28;20115;-61
2023/11/27 11:04:39;;;;;;;45.42;29.60;;;256.50;1868.80;;;;;;5071015;28;20463;-64
2023/11/27 11:07:18;;;;;;;39.22;25.38;;;256.40;1868.80;;;;;;5071073;28;20025;-59
2023/11/27 11:09:48;;;;;;;11.13;5.22;;;256.40;1894.40;;;;;;5070746;28;20024;-63
2023/11/27 11:12:19;;;;;;;21.65;13.93;;;256.40;1894.40;;;;;;5060618;28;20590;-61
2023/11/27 11:14:46;;;;;;;16.85;10.35;;;256.50;1868.80;;;;;;5061580;28;20481;-60
2023/11/27 11:17:20;;;;;;;25.30;17.42;;;256.60;1894.40;;;;;;5066631;28;20028;-62
2023/11/27 11:20:16;;;;;;;8.75;6.40;;;256.50;1843.20;;;;;;5070570;28;20028;-62
2023/11/27 11:22:44;;;;;;;5.60;3.20;;;256.60;1894.40;;;;;;5070772;28;20025;-62
2023/11/27 11:25:34;;;;;;;14.02;8.77;;;256.60;1894.40;;;;;;5070744;28;20062;-62
2023/11/27 11:28:26;;;;;;;145.82;88.85;;;256.60;1843.20;;;;;;5070535;28;20060;-61
2023/11/27 11:31:17;;;;;;;14.27;8.43;;;256.70;1868.80;;;;;;5070698;28;20029;-62
2023/11/27 11:33:44;;;;;;;86.75;58.20;;;256.80;1894.40;;;;;;5070681;28;20055;-63
2023/11/27 11:36:30;;;;;;;90.55;55.00;;;256.60;1868.80;;;;;;5070574;28;20486;-62
2023/11/27 11:38:56;;;;;;;36.15;22.08;;;256.50;1817.60;;;;;;5069800;28;20032;-61
2023/11/27 11:41:24;;;;;;;66.85;39.67;;;256.60;1868.80;;;;;;5051992;28;20028;-60
2023/11/27 11:43:52;;;;;;;14.23;8.60;;;256.80;1843.20;;;;;;5069921;28;20024;-61
2023/11/27 11:46:25;;;;;;;13.25;8.45;;;281.60;1868.80;;;;;;5069619;28;20073;-66
2023/11/27 11:48:57;;;;;;;4.65;3.08;;;281.60;1843.20;;;;;;5070202;28;20031;-66
2023/11/27 11:51:26;;;;;;;24.45;16.65;;;281.60;1868.80;;;;;;5069774;28;20025;-62
2023/11/27 11:53:52;;;;;;;4.72;3.10;;;256.90;1843.20;;;;;;5069465;28;20017;-61
2023/11/27 11:56:24;;;;;;;15.07;13.73;;;281.60;1868.80;;;;;;5069652;28;20052;-60
2023/11/27 11:58:51;;;;;;;9.97;5.90;;;281.60;1843.20;;;;;;5069850;28;20028;-61
2023/11/27 12:01:18;;;;;;;8.32;6.00;;;281.60;1868.80;;;;;;5069213;28;20249;-60
2023/11/27 12:03:45;;;;;;;7.72;5.78;;;281.60;1843.20;;;;;;5069176;28;20100;-61
2023/11/27 12:06:15;;;;;;;29.73;23.00;;;256.90;1817.60;;;;;;5069594;28;20096;-60
2023/11/27 12:08:45;;;;;;;5.03;2.72;;;256.80;1843.20;;;;;;5069830;28;20089;-60